Thunderstorms From: 25-05-2018 05:05 Until: 26-05-2018 05:00 warning for: Thunderstorms Level: Yellow info button

Although rather usual in this region, locally or potentially dangerous phenomena are expected. (such as local winds, summer thunderstorms, rising streams or high waves) Be aware and pay attention to the latest weather updates, especially if you carry out activities exposed to weather or close to a stream or shoreline. 


Meteo18 Weather Cam more information Meteo18 Weather Cam


warning for Thunderstorms more information blitzortung!


Rain radar more information rain snow radar


Visit our other weather sites:

Template documentation
and downloads

And another site



Weather Underground History page Text

Daily Summary for November 30, 2017 Units:  Both    English   Metric
« Previous Day
Next Day »
Daily Weekly Monthly Yearly Custom
  High: Low: Average:
Temperature: TemperatureC °F /  -17.8 °C -0.2 °F /  -17.9 °C 2 °F /  -16.7 °C
Dew Point: DewpointC °F /  -17.8 °C -0.8 °F /  -18.2 °C 1 °F /  -17.2 °C
Humidity: Humidity % 90 % 93 %
Wind Speed: WindSpeedKMH mph /  0 km/h - 5.2 mph /  8.4 km/h
Wind Gust: WindSpeedGustKMH mph /  0 km/h - -
Wind:- - WNW
Pressure: PressurehPa in /  0 hPa 1010.0 in /  34198.6 hPa -
Precipitation: 3.6 in /  91.44 mm    
Historical Graphs
 
 
Tabular Data for November 30, 2017
Time Temperature Dew Point Pressure Wind Wind Speed Wind Gust Humidity Rainfall Rate (Hourly)
TemperatureC °F /  -17.8 °C DewpointC °F /  -17.8 °C PressurehPa in /  0 hPa Calm     Humidity % HourlyPrecipMM in /  0 mm
00:02 2.8 °F /  -16.2 °C 1.8 °F /  -16.8 °C 1011.4 in /  34246 hPa WNW 3.2 mph /  5.1 km/h 4.8 mph /  7.7 km/h 93 % 0.0 in /  0 mm
00:12 2.7 °F /  -16.3 °C 1.7 °F /  -16.8 °C 1011.4 in /  34246 hPa West 3.2 mph /  5.1 km/h 4.8 mph /  7.7 km/h 93 % 0.0 in /  0 mm
00:17 2.7 °F /  -16.3 °C 1.7 °F /  -16.8 °C 1011.4 in /  34246 hPa WNW 6.4 mph /  10.3 km/h 6.4 mph /  10.3 km/h 93 % 0.0 in /  0 mm
00:22 2.7 °F /  -16.3 °C 1.7 °F /  -16.8 °C 1011.4 in /  34246 hPa West 3.2 mph /  5.1 km/h 6.4 mph /  10.3 km/h 93 % 0.0 in /  0 mm
00:47 2.7 °F /  -16.3 °C 1.7 °F /  -16.8 °C 1011.4 in /  34246 hPa WNW 1.6 mph /  2.6 km/h 8.0 mph /  12.9 km/h 93 % 0.0 in /  0 mm
00:52 2.7 °F /  -16.3 °C 1.7 °F /  -16.8 °C 1011.4 in /  34246 hPa West 4.8 mph /  7.7 km/h 8.0 mph /  12.9 km/h 93 % 0.0 in /  0 mm
00:57 2.7 °F /  -16.3 °C 1.7 °F /  -16.8 °C 1011.4 in /  34246 hPa West 3.2 mph /  5.1 km/h 6.4 mph /  10.3 km/h 93 % 0.0 in /  0 mm
01:02 2.6 °F /  -16.3 °C 1.6 °F /  -16.9 °C 1011.4 in /  34246 hPa West 6.4 mph /  10.3 km/h 6.4 mph /  10.3 km/h 93 % 0.0 in /  0 mm
01:17 2.6 °F /  -16.3 °C 1.6 °F /  -16.9 °C 1011.1 in /  34235.8 hPa WSW 3.2 mph /  5.1 km/h 11.3 mph /  18.2 km/h 93 % 0.0 in /  0 mm
01:22 2.6 °F /  -16.3 °C 1.6 °F /  -16.9 °C 1011.4 in /  34246 hPa WNW 1.6 mph /  2.6 km/h 11.3 mph /  18.2 km/h 93 % 0.0 in /  0 mm
01:42 2.5 °F /  -16.4 °C 1.6 °F /  -16.9 °C 1011.1 in /  34235.8 hPa WNW 4.8 mph /  7.7 km/h 9.7 mph /  15.6 km/h 94 % 0.0 in /  0 mm
01:47 2.5 °F /  -16.4 °C 1.6 °F /  -16.9 °C 1011.1 in /  34235.8 hPa West 8.0 mph /  12.9 km/h 9.7 mph /  15.6 km/h 94 % 0.0 in /  0 mm
01:52 2.5 °F /  -16.4 °C 1.5 °F /  -16.9 °C 1011.1 in /  34235.8 hPa WNW 8.0 mph /  12.9 km/h 9.7 mph /  15.6 km/h 93 % 0.0 in /  0 mm
01:57 2.4 °F /  -16.4 °C 1.4 °F /  -17 °C 1011.1 in /  34235.8 hPa West 8.0 mph /  12.9 km/h 12.9 mph /  20.8 km/h 93 % 0.0 in /  0 mm
02:12 2.4 °F /  -16.4 °C 1.4 °F /  -17 °C 1011.1 in /  34235.8 hPa WNW 8.0 mph /  12.9 km/h 12.9 mph /  20.8 km/h 93 % 0.0 in /  0 mm
02:17 2.4 °F /  -16.4 °C 1.4 °F /  -17 °C 1011.1 in /  34235.8 hPa West 3.2 mph /  5.1 km/h 16.1 mph /  25.9 km/h 93 % 0.0 in /  0 mm
02:22 2.4 °F /  -16.4 °C 1.4 °F /  -17 °C 1011.1 in /  34235.8 hPa WNW 6.4 mph /  10.3 km/h 16.1 mph /  25.9 km/h 93 % 0.0 in /  0 mm
02:32 2.4 °F /  -16.4 °C 1.4 °F /  -17 °C 1011.1 in /  34235.8 hPa NW 8.0 mph /  12.9 km/h 11.3 mph /  18.2 km/h 93 % 0.0 in /  0 mm
02:37 2.4 °F /  -16.4 °C 1.4 °F /  -17 °C 1011.1 in /  34235.8 hPa West 8.0 mph /  12.9 km/h 11.3 mph /  18.2 km/h 93 % 0.0 in /  0 mm
02:47 2.3 °F /  -16.5 °C 1.4 °F /  -17 °C 1011.4 in /  34246 hPa WNW 11.3 mph /  18.2 km/h 12.9 mph /  20.8 km/h 94 % 0.0 in /  0 mm
02:52 2.3 °F /  -16.5 °C 1.4 °F /  -17 °C 1011.4 in /  34246 hPa West 6.4 mph /  10.3 km/h 12.9 mph /  20.8 km/h 94 % 0.0 in /  0 mm
02:57 2.3 °F /  -16.5 °C 1.4 °F /  -17 °C 1011.4 in /  34246 hPa West 4.8 mph /  7.7 km/h 11.3 mph /  18.2 km/h 94 % 0.0 in /  0 mm
03:02 2.4 °F /  -16.4 °C 1.5 °F /  -16.9 °C 1011.4 in /  34246 hPa West 4.8 mph /  7.7 km/h 11.3 mph /  18.2 km/h 94 % 0.0 in /  0 mm
03:12 2.4 °F /  -16.4 °C 1.5 °F /  -16.9 °C 1011.4 in /  34246 hPa West 4.8 mph /  7.7 km/h 9.7 mph /  15.6 km/h 94 % 0.0 in /  0 mm
03:37 2.4 °F /  -16.4 °C 1.5 °F /  -16.9 °C 1011.1 in /  34235.8 hPa WNW 8.0 mph /  12.9 km/h 12.9 mph /  20.8 km/h 94 % 0.0 in /  0 mm
03:42 2.4 °F /  -16.4 °C 1.5 °F /  -16.9 °C 1011.1 in /  34235.8 hPa NW 19.3 mph /  31.1 km/h 19.3 mph /  31.1 km/h 94 % 0.0 in /  0 mm
03:52 2.4 °F /  -16.4 °C 1.5 °F /  -16.9 °C 1011.1 in /  34235.8 hPa West 6.4 mph /  10.3 km/h 19.3 mph /  31.1 km/h 94 % 0.0 in /  0 mm
04:02 2.4 °F /  -16.4 °C 1.5 °F /  -16.9 °C 1011.1 in /  34235.8 hPa WNW 6.4 mph /  10.3 km/h 19.3 mph /  31.1 km/h 94 % 0.0 in /  0 mm
04:12 2.3 °F /  -16.5 °C 1.4 °F /  -17 °C 1011.1 in /  34235.8 hPa NW 8.0 mph /  12.9 km/h 12.9 mph /  20.8 km/h 94 % 0.0 in /  0 mm
04:17 2.3 °F /  -16.5 °C 1.4 °F /  -17 °C 1011.1 in /  34235.8 hPa WNW 6.4 mph /  10.3 km/h 17.7 mph /  28.5 km/h 94 % 0.0 in /  0 mm
04:32 2.3 °F /  -16.5 °C 1.4 °F /  -17 °C 1011.1 in /  34235.8 hPa WNW 4.8 mph /  7.7 km/h 12.9 mph /  20.8 km/h 94 % 0.0 in /  0 mm
04:42 2.2 °F /  -16.6 °C 1.3 °F /  -17.1 °C 1011.1 in /  34235.8 hPa WNW 3.2 mph /  5.1 km/h 17.7 mph /  28.5 km/h 94 % 0.3 in /  7.62 mm
04:47 2.2 °F /  -16.6 °C 1.3 °F /  -17.1 °C 1011.1 in /  34235.8 hPa WNW 11.3 mph /  18.2 km/h 16.1 mph /  25.9 km/h 94 % 0.5 in /  12.7 mm
04:52 2.2 °F /  -16.6 °C 1.3 °F /  -17.1 °C 1011.1 in /  34235.8 hPa West 9.7 mph /  15.6 km/h 16.1 mph /  25.9 km/h 94 % 0.5 in /  12.7 mm
05:02 2.2 °F /  -16.6 °C 1.3 °F /  -17.1 °C 1011.1 in /  34235.8 hPa WNW 3.2 mph /  5.1 km/h 16.1 mph /  25.9 km/h 94 % 0.5 in /  12.7 mm
05:07 2.2 °F /  -16.6 °C 1.3 °F /  -17.1 °C 1011.1 in /  34235.8 hPa NW 6.4 mph /  10.3 km/h 17.7 mph /  28.5 km/h 94 % 0.5 in /  12.7 mm
05:12 2.2 °F /  -16.6 °C 1.3 °F /  -17.1 °C 1011.1 in /  34235.8 hPa NW 6.4 mph /  10.3 km/h 17.7 mph /  28.5 km/h 94 % 0.5 in /  12.7 mm
05:17 2.2 °F /  -16.6 °C 1.5 °F /  -16.9 °C 1011.1 in /  34235.8 hPa NW 1.6 mph /  2.6 km/h 17.7 mph /  28.5 km/h 95 % 0.5 in /  12.7 mm
05:22 2.3 °F /  -16.5 °C 1.6 °F /  -16.9 °C 1011.1 in /  34235.8 hPa NNW 4.8 mph /  7.7 km/h 17.7 mph /  28.5 km/h 95 % 0.5 in /  12.7 mm
05:42 2.4 °F /  -16.4 °C 1.5 °F /  -16.9 °C 1011.1 in /  34235.8 hPa WNW 6.4 mph /  10.3 km/h 16.1 mph /  25.9 km/h 94 % 0.3 in /  7.62 mm
05:47 2.4 °F /  -16.4 °C 1.5 °F /  -16.9 °C 1011.1 in /  34235.8 hPa NW 8.0 mph /  12.9 km/h 12.9 mph /  20.8 km/h 94 % 0.0 in /  0 mm
05:52 2.4 °F /  -16.4 °C 1.5 °F /  -16.9 °C 1011.1 in /  34235.8 hPa West 3.2 mph /  5.1 km/h 12.9 mph /  20.8 km/h 94 % 0.0 in /  0 mm
06:02 2.4 °F /  -16.4 °C 1.5 °F /  -16.9 °C 1011.1 in /  34235.8 hPa West 1.6 mph /  2.6 km/h 12.9 mph /  20.8 km/h 94 % 0.0 in /  0 mm
06:12 2.4 °F /  -16.4 °C 1.5 °F /  -16.9 °C 1011.1 in /  34235.8 hPa WNW 6.4 mph /  10.3 km/h 14.5 mph /  23.3 km/h 94 % 0.0 in /  0 mm
06:17 2.4 °F /  -16.4 °C 1.5 °F /  -16.9 °C 1011.1 in /  34235.8 hPa NW 4.8 mph /  7.7 km/h 11.3 mph /  18.2 km/h 94 % 0.0 in /  0 mm
06:22 2.4 °F /  -16.4 °C 1.5 °F /  -16.9 °C 1011.1 in /  34235.8 hPa WNW 3.2 mph /  5.1 km/h 11.3 mph /  18.2 km/h 94 % 0.0 in /  0 mm
06:27 2.4 °F /  -16.4 °C 1.5 °F /  -16.9 °C 1011.4 in /  34246 hPa West 6.4 mph /  10.3 km/h 11.3 mph /  18.2 km/h 94 % 0.0 in /  0 mm
06:32 2.5 °F /  -16.4 °C 1.6 °F /  -16.9 °C 1011.4 in /  34246 hPa WNW 6.4 mph /  10.3 km/h 11.3 mph /  18.2 km/h 94 % 0.0 in /  0 mm
06:37 2.5 °F /  -16.4 °C 1.6 °F /  -16.9 °C 1011.4 in /  34246 hPa WNW 9.7 mph /  15.6 km/h 11.3 mph /  18.2 km/h 94 % 0.0 in /  0 mm
06:42 2.5 °F /  -16.4 °C 1.6 °F /  -16.9 °C 1011.4 in /  34246 hPa WNW 6.4 mph /  10.3 km/h 16.1 mph /  25.9 km/h 94 % 0.0 in /  0 mm
06:52 2.5 °F /  -16.4 °C 1.6 °F /  -16.9 °C 1011.4 in /  34246 hPa NW 8.0 mph /  12.9 km/h 16.1 mph /  25.9 km/h 94 % 0.0 in /  0 mm
06:57 2.5 °F /  -16.4 °C 1.6 °F /  -16.9 °C 1011.4 in /  34246 hPa WNW 11.3 mph /  18.2 km/h 14.5 mph /  23.3 km/h 94 % 0.0 in /  0 mm
07:07 2.5 °F /  -16.4 °C 1.6 °F /  -16.9 °C 1011.4 in /  34246 hPa NW 1.6 mph /  2.6 km/h 14.5 mph /  23.3 km/h 94 % 0.0 in /  0 mm
07:12 2.5 °F /  -16.4 °C 1.6 °F /  -16.9 °C 1011.4 in /  34246 hPa WSW 3.2 mph /  5.1 km/h 19.3 mph /  31.1 km/h 94 % 0.0 in /  0 mm
07:17 2.4 °F /  -16.4 °C 1.5 °F /  -16.9 °C 1011.4 in /  34246 hPa WNW 6.4 mph /  10.3 km/h 19.3 mph /  31.1 km/h 94 % 0.0 in /  0 mm
07:22 2.5 °F /  -16.4 °C 1.6 °F /  -16.9 °C 1011.4 in /  34246 hPa NW 4.8 mph /  7.7 km/h 14.5 mph /  23.3 km/h 94 % 0.3 in /  7.62 mm
07:32 2.4 °F /  -16.4 °C 1.5 °F /  -16.9 °C 1011.4 in /  34246 hPa WNW 3.2 mph /  5.1 km/h 14.5 mph /  23.3 km/h 94 % 0.3 in /  7.62 mm
07:42 2.4 °F /  -16.4 °C 1.5 °F /  -16.9 °C 1011.4 in /  34246 hPa NW 1.6 mph /  2.6 km/h 16.1 mph /  25.9 km/h 94 % 0.3 in /  7.62 mm
07:52 2.4 °F /  -16.4 °C 1.5 °F /  -16.9 °C 1011.7 in /  34256.2 hPa WNW 11.3 mph /  18.2 km/h 11.3 mph /  18.2 km/h 94 % 0.3 in /  7.62 mm
07:57 2.4 °F /  -16.4 °C 1.5 °F /  -16.9 °C 1011.7 in /  34256.2 hPa WSW 9.7 mph /  15.6 km/h 11.3 mph /  18.2 km/h 94 % 0.3 in /  7.62 mm
08:02 2.4 °F /  -16.4 °C 1.5 °F /  -16.9 °C 1011.7 in /  34256.2 hPa WNW 9.7 mph /  15.6 km/h 19.3 mph /  31.1 km/h 94 % 0.3 in /  7.62 mm
08:07 2.4 °F /  -16.4 °C 1.5 °F /  -16.9 °C 1011.7 in /  34256.2 hPa West 1.6 mph /  2.6 km/h 19.3 mph /  31.1 km/h 94 % 0.3 in /  7.62 mm
08:12 2.4 °F /  -16.4 °C 1.5 °F /  -16.9 °C 1011.7 in /  34256.2 hPa WNW 8.0 mph /  12.9 km/h 19.3 mph /  31.1 km/h 94 % 0.0 in /  0 mm
08:17 2.4 °F /  -16.4 °C 1.5 °F /  -16.9 °C 1011.7 in /  34256.2 hPa West 1.6 mph /  2.6 km/h 19.3 mph /  31.1 km/h 94 % 0.0 in /  0 mm
08:22 2.4 °F /  -16.4 °C 1.5 °F /  -16.9 °C 1011.7 in /  34256.2 hPa NW 3.2 mph /  5.1 km/h 11.3 mph /  18.2 km/h 94 % 0.0 in /  0 mm
08:32 2.4 °F /  -16.4 °C 1.5 °F /  -16.9 °C 1012.1 in /  34269.7 hPa WNW 3.2 mph /  5.1 km/h 14.5 mph /  23.3 km/h 94 % 0.0 in /  0 mm
08:42 2.5 °F /  -16.4 °C 1.6 °F /  -16.9 °C 1012.1 in /  34269.7 hPa NW 4.8 mph /  7.7 km/h 16.1 mph /  25.9 km/h 94 % 0.0 in /  0 mm
08:52 2.5 °F /  -16.4 °C 1.6 °F /  -16.9 °C 1012.1 in /  34269.7 hPa WNW 8.0 mph /  12.9 km/h 16.1 mph /  25.9 km/h 94 % 0.0 in /  0 mm
09:02 2.5 °F /  -16.4 °C 1.6 °F /  -16.9 °C 1012.4 in /  34279.9 hPa NW 9.7 mph /  15.6 km/h 17.7 mph /  28.5 km/h 94 % 0.0 in /  0 mm
09:17 2.5 °F /  -16.4 °C 1.6 °F /  -16.9 °C 1012.4 in /  34279.9 hPa West 3.2 mph /  5.1 km/h 12.9 mph /  20.8 km/h 94 % 0.0 in /  0 mm
09:32 2.4 °F /  -16.4 °C 1.4 °F /  -17 °C 1012.8 in /  34293.4 hPa NW 8.0 mph /  12.9 km/h 17.7 mph /  28.5 km/h 93 % 0.0 in /  0 mm
09:37 2.4 °F /  -16.4 °C 1.4 °F /  -17 °C 1012.8 in /  34293.4 hPa WNW 4.8 mph /  7.7 km/h 17.7 mph /  28.5 km/h 93 % 0.0 in /  0 mm
09:42 2.5 °F /  -16.4 °C 1.5 °F /  -16.9 °C 1012.4 in /  34279.9 hPa WNW 6.4 mph /  10.3 km/h 17.7 mph /  28.5 km/h 93 % 0.0 in /  0 mm
09:47 2.6 °F /  -16.3 °C 1.6 °F /  -16.9 °C 1012.4 in /  34279.9 hPa West 3.2 mph /  5.1 km/h 17.7 mph /  28.5 km/h 93 % 0.0 in /  0 mm
10:02 2.8 °F /  -16.2 °C 1.8 °F /  -16.8 °C 1012.4 in /  34279.9 hPa West 6.4 mph /  10.3 km/h 9.7 mph /  15.6 km/h 93 % 0.0 in /  0 mm
10:12 2.9 °F /  -16.2 °C 1.7 °F /  -16.8 °C 1012.4 in /  34279.9 hPa NW 3.2 mph /  5.1 km/h 14.5 mph /  23.3 km/h 92 % 0.0 in /  0 mm
10:17 3.1 °F /  -16.1 °C 1.9 °F /  -16.7 °C 1012.4 in /  34279.9 hPa West 6.4 mph /  10.3 km/h 14.5 mph /  23.3 km/h 92 % 0.0 in /  0 mm
10:27 3.2 °F /  -16 °C 1.7 °F /  -16.8 °C 1012.8 in /  34293.4 hPa WNW 6.4 mph /  10.3 km/h 17.7 mph /  28.5 km/h 90 % 0.0 in /  0 mm
10:32 3.2 °F /  -16 °C 1.7 °F /  -16.8 °C 1012.8 in /  34293.4 hPa WNW 8.0 mph /  12.9 km/h 14.5 mph /  23.3 km/h 90 % 0.0 in /  0 mm
10:57 2.9 °F /  -16.2 °C 1.6 °F /  -16.9 °C 1012.8 in /  34293.4 hPa WNW 8.0 mph /  12.9 km/h 20.9 mph /  33.6 km/h 91 % 0.0 in /  0 mm
11:02 3.0 °F /  -16.1 °C 1.8 °F /  -16.8 °C 1012.8 in /  34293.4 hPa NW 4.8 mph /  7.7 km/h 14.5 mph /  23.3 km/h 92 % 0.0 in /  0 mm
11:12 3.1 °F /  -16.1 °C 1.9 °F /  -16.7 °C 1012.8 in /  34293.4 hPa SW 3.2 mph /  5.1 km/h 12.9 mph /  20.8 km/h 92 % 0.0 in /  0 mm
11:22 3.1 °F /  -16.1 °C 1.8 °F /  -16.8 °C 1012.8 in /  34293.4 hPa WSW 4.8 mph /  7.7 km/h 14.5 mph /  23.3 km/h 91 % 0.0 in /  0 mm
11:27 3.1 °F /  -16.1 °C 1.8 °F /  -16.8 °C 1012.8 in /  34293.4 hPa West 1.6 mph /  2.6 km/h 14.5 mph /  23.3 km/h 91 % 0.0 in /  0 mm
11:32 3.2 °F /  -16 °C 1.9 °F /  -16.7 °C 1012.8 in /  34293.4 hPa NW 6.4 mph /  10.3 km/h 14.5 mph /  23.3 km/h 91 % 0.0 in /  0 mm
11:37 3.2 °F /  -16 °C 1.9 °F /  -16.7 °C 1012.4 in /  34279.9 hPa West 9.7 mph /  15.6 km/h 14.5 mph /  23.3 km/h 91 % 0.0 in /  0 mm
11:47 3.3 °F /  -15.9 °C 2.0 °F /  -16.7 °C 1012.4 in /  34279.9 hPa West 8.0 mph /  12.9 km/h 14.5 mph /  23.3 km/h 91 % 0.0 in /  0 mm
11:52 3.3 °F /  -15.9 °C 1.8 °F /  -16.8 °C 1012.4 in /  34279.9 hPa WNW 9.7 mph /  15.6 km/h 14.5 mph /  23.3 km/h 90 % 0.0 in /  0 mm
11:57 3.3 °F /  -15.9 °C 1.8 °F /  -16.8 °C 1012.4 in /  34279.9 hPa WNW 8.0 mph /  12.9 km/h 14.5 mph /  23.3 km/h 90 % 0.0 in /  0 mm
12:02 3.2 °F /  -16 °C 1.7 °F /  -16.8 °C 1012.1 in /  34269.7 hPa WNW 6.4 mph /  10.3 km/h 16.1 mph /  25.9 km/h 90 % 0.0 in /  0 mm
12:12 3.2 °F /  -16 °C 1.9 °F /  -16.7 °C 1012.1 in /  34269.7 hPa West 9.7 mph /  15.6 km/h 14.5 mph /  23.3 km/h 91 % 0.0 in /  0 mm
12:17 3.1 °F /  -16.1 °C 1.8 °F /  -16.8 °C 1012.1 in /  34269.7 hPa West 4.8 mph /  7.7 km/h 14.5 mph /  23.3 km/h 91 % 0.0 in /  0 mm
12:27 3.1 °F /  -16.1 °C 1.8 °F /  -16.8 °C 1012.1 in /  34269.7 hPa West 4.8 mph /  7.7 km/h 12.9 mph /  20.8 km/h 91 % 0.0 in /  0 mm
12:32 3.1 °F /  -16.1 °C 1.8 °F /  -16.8 °C 1012.1 in /  34269.7 hPa West 12.9 mph /  20.8 km/h 12.9 mph /  20.8 km/h 91 % 0.0 in /  0 mm
12:37 3.0 °F /  -16.1 °C 1.7 °F /  -16.8 °C 1011.7 in /  34256.2 hPa West 3.2 mph /  5.1 km/h 16.1 mph /  25.9 km/h 91 % 0.0 in /  0 mm
12:42 2.9 °F /  -16.2 °C 1.6 °F /  -16.9 °C 1011.7 in /  34256.2 hPa WNW 9.7 mph /  15.6 km/h 16.1 mph /  25.9 km/h 91 % 0.0 in /  0 mm
12:47 2.9 °F /  -16.2 °C 1.6 °F /  -16.9 °C 1011.7 in /  34256.2 hPa West 4.8 mph /  7.7 km/h 16.1 mph /  25.9 km/h 91 % 0.0 in /  0 mm
12:52 2.9 °F /  -16.2 °C 1.6 °F /  -16.9 °C 1011.7 in /  34256.2 hPa West 6.4 mph /  10.3 km/h 16.1 mph /  25.9 km/h 91 % 0.0 in /  0 mm
13:02 2.9 °F /  -16.2 °C 1.7 °F /  -16.8 °C 1011.7 in /  34256.2 hPa West 8.0 mph /  12.9 km/h 16.1 mph /  25.9 km/h 92 % 0.0 in /  0 mm
13:12 3.1 °F /  -16.1 °C 1.9 °F /  -16.7 °C 1011.7 in /  34256.2 hPa WSW 11.3 mph /  18.2 km/h 12.9 mph /  20.8 km/h 92 % 0.0 in /  0 mm
13:17 3.1 °F /  -16.1 °C 1.8 °F /  -16.8 °C 1011.7 in /  34256.2 hPa WSW 9.7 mph /  15.6 km/h 12.9 mph /  20.8 km/h 91 % 0.0 in /  0 mm
13:22 3.2 °F /  -16 °C 1.9 °F /  -16.7 °C 1011.4 in /  34246 hPa WSW 9.7 mph /  15.6 km/h 12.9 mph /  20.8 km/h 91 % 0.0 in /  0 mm
13:27 3.2 °F /  -16 °C 1.7 °F /  -16.8 °C 1011.4 in /  34246 hPa West 3.2 mph /  5.1 km/h 19.3 mph /  31.1 km/h 90 % 0.0 in /  0 mm
13:32 3.3 °F /  -15.9 °C 2.0 °F /  -16.7 °C 1011.4 in /  34246 hPa West 9.7 mph /  15.6 km/h 19.3 mph /  31.1 km/h 91 % 0.0 in /  0 mm
13:47 2.7 °F /  -16.3 °C 1.4 °F /  -17 °C 1011.4 in /  34246 hPa WSW 14.5 mph /  23.3 km/h 20.9 mph /  33.6 km/h 91 % 0.5 in /  12.7 mm
13:52 2.6 °F /  -16.3 °C 1.6 °F /  -16.9 °C 1011.4 in /  34246 hPa West 11.3 mph /  18.2 km/h 20.9 mph /  33.6 km/h 93 % 0.5 in /  12.7 mm
13:57 2.6 °F /  -16.3 °C 1.6 °F /  -16.9 °C 1011.4 in /  34246 hPa West 11.3 mph /  18.2 km/h 19.3 mph /  31.1 km/h 93 % 0.8 in /  20.32 mm
14:02 2.6 °F /  -16.3 °C 1.6 °F /  -16.9 °C 1011.4 in /  34246 hPa WNW 1.6 mph /  2.6 km/h 19.3 mph /  31.1 km/h 93 % 0.8 in /  20.32 mm
14:12 1.8 °F /  -16.8 °C 0.8 °F /  -17.3 °C 1011.4 in /  34246 hPa NW 4.8 mph /  7.7 km/h 19.3 mph /  31.1 km/h 93 % 1.0 in /  25.4 mm
14:17 1.9 °F /  -16.7 °C 1.0 °F /  -17.2 °C 1011.4 in /  34246 hPa WNW 3.2 mph /  5.1 km/h 12.9 mph /  20.8 km/h 94 % 1.3 in /  33.02 mm
14:22 2.1 °F /  -16.6 °C 1.4 °F /  -17 °C 1011.4 in /  34246 hPa West 1.6 mph /  2.6 km/h 12.9 mph /  20.8 km/h 95 % 1.3 in /  33.02 mm
14:27 2.2 °F /  -16.6 °C 1.3 °F /  -17.1 °C 1011.1 in /  34235.8 hPa WNW 3.2 mph /  5.1 km/h 12.9 mph /  20.8 km/h 94 % 1.3 in /  33.02 mm
14:42 2.8 °F /  -16.2 °C 1.9 °F /  -16.7 °C 1010.7 in /  34222.3 hPa SW 3.2 mph /  5.1 km/h 8.0 mph /  12.9 km/h 94 % 1.3 in /  33.02 mm
14:47 3.1 °F /  -16.1 °C 2.2 °F /  -16.6 °C 1010.7 in /  34222.3 hPa SW 1.6 mph /  2.6 km/h 8.0 mph /  12.9 km/h 94 % 0.8 in /  20.32 mm
14:57 3.3 °F /  -15.9 °C 2.1 °F /  -16.6 °C 1010.7 in /  34222.3 hPa WSW 8.0 mph /  12.9 km/h 12.9 mph /  20.8 km/h 92 % 0.5 in /  12.7 mm
15:12 2.8 °F /  -16.2 °C 1.3 °F /  -17.1 °C 1011.1 in /  34235.8 hPa WNW 9.7 mph /  15.6 km/h 17.7 mph /  28.5 km/h 90 % 0.3 in /  7.62 mm
15:22 1.5 °F /  -16.9 °C 0.2 °F /  -17.7 °C 1010.7 in /  34222.3 hPa WNW 9.7 mph /  15.6 km/h 19.3 mph /  31.1 km/h 91 % 0.5 in /  12.7 mm
15:32 1.2 °F /  -17.1 °C 0.2 °F /  -17.7 °C 1011.1 in /  34235.8 hPa NW 4.8 mph /  7.7 km/h 19.3 mph /  31.1 km/h 93 % 0.5 in /  12.7 mm
15:37 1.0 °F /  -17.2 °C 0.0 °F /  -17.8 °C 1011.1 in /  34235.8 hPa NNW 8.0 mph /  12.9 km/h 16.1 mph /  25.9 km/h 93 % 0.5 in /  12.7 mm
15:42 0.7 °F /  -17.4 °C -0.2 °F /  -17.9 °C 1011.1 in /  34235.8 hPa NNW 1.6 mph /  2.6 km/h 16.1 mph /  25.9 km/h 94 % 0.5 in /  12.7 mm
15:57 0.6 °F /  -17.4 °C -0.1 °F /  -17.8 °C 1011.1 in /  34235.8 hPa WNW 4.8 mph /  7.7 km/h 14.5 mph /  23.3 km/h 95 % 0.8 in /  20.32 mm
16:02 0.6 °F /  -17.4 °C -0.1 °F /  -17.8 °C 1011.1 in /  34235.8 hPa NNW 3.2 mph /  5.1 km/h 14.5 mph /  23.3 km/h 95 % 0.8 in /  20.32 mm
16:12 0.7 °F /  -17.4 °C 0.0 °F /  -17.8 °C 1011.1 in /  34235.8 hPa West 1.6 mph /  2.6 km/h 8.0 mph /  12.9 km/h 95 % 0.5 in /  12.7 mm
16:32 0.9 °F /  -17.3 °C 0.2 °F /  -17.7 °C 1010.7 in /  34222.3 hPa West 1.6 mph /  2.6 km/h 9.7 mph /  15.6 km/h 95 % 0.5 in /  12.7 mm
16:37 0.9 °F /  -17.3 °C 0.2 °F /  -17.7 °C 1010.7 in /  34222.3 hPa Calm   9.7 mph /  15.6 km/h 95 % 0.5 in /  12.7 mm
16:47 1.1 °F /  -17.2 °C 0.2 °F /  -17.7 °C 1011.1 in /  34235.8 hPa WNW 4.8 mph /  7.7 km/h 6.4 mph /  10.3 km/h 94 % 0.5 in /  12.7 mm
16:52 1.2 °F /  -17.1 °C 0.3 °F /  -17.6 °C 1011.1 in /  34235.8 hPa West 3.2 mph /  5.1 km/h 6.4 mph /  10.3 km/h 94 % 0.5 in /  12.7 mm
17:02 1.3 °F /  -17.1 °C 0.4 °F /  -17.6 °C 1011.1 in /  34235.8 hPa WNW 3.2 mph /  5.1 km/h 8.0 mph /  12.9 km/h 94 % 0.5 in /  12.7 mm
17:07 1.3 °F /  -17.1 °C 0.4 °F /  -17.6 °C 1011.1 in /  34235.8 hPa Calm   8.0 mph /  12.9 km/h 94 % 0.5 in /  12.7 mm
17:17 1.4 °F /  -17 °C 0.5 °F /  -17.5 °C 1011.1 in /  34235.8 hPa West 3.2 mph /  5.1 km/h 6.4 mph /  10.3 km/h 94 % 0.3 in /  7.62 mm
17:22 1.6 °F /  -16.9 °C 0.7 °F /  -17.4 °C 1011.1 in /  34235.8 hPa WNW 8.0 mph /  12.9 km/h 8.0 mph /  12.9 km/h 94 % 0.3 in /  7.62 mm
17:32 1.7 °F /  -16.8 °C 0.5 °F /  -17.5 °C 1011.1 in /  34235.8 hPa WNW 3.2 mph /  5.1 km/h 12.9 mph /  20.8 km/h 92 % 0.5 in /  12.7 mm
17:37 1.7 °F /  -16.8 °C 0.5 °F /  -17.5 °C 1011.4 in /  34246 hPa West 3.2 mph /  5.1 km/h 12.9 mph /  20.8 km/h 92 % 0.5 in /  12.7 mm
17:52 1.8 °F /  -16.8 °C 0.8 °F /  -17.3 °C 1011.4 in /  34246 hPa WSW 6.4 mph /  10.3 km/h 12.9 mph /  20.8 km/h 93 % 0.3 in /  7.62 mm
17:57 1.8 °F /  -16.8 °C 0.8 °F /  -17.3 °C 1011.4 in /  34246 hPa West 4.8 mph /  7.7 km/h 12.9 mph /  20.8 km/h 93 % 0.5 in /  12.7 mm
18:02 1.7 °F /  -16.8 °C 0.7 °F /  -17.4 °C 1011.4 in /  34246 hPa WNW 6.4 mph /  10.3 km/h 11.3 mph /  18.2 km/h 93 % 0.5 in /  12.7 mm
18:07 1.7 °F /  -16.8 °C 0.7 °F /  -17.4 °C 1011.1 in /  34235.8 hPa WNW 3.2 mph /  5.1 km/h 11.3 mph /  18.2 km/h 93 % 0.5 in /  12.7 mm
18:12 1.7 °F /  -16.8 °C 0.7 °F /  -17.4 °C 1011.4 in /  34246 hPa West 3.2 mph /  5.1 km/h 11.3 mph /  18.2 km/h 93 % 0.5 in /  12.7 mm
18:17 1.8 °F /  -16.8 °C 0.8 °F /  -17.3 °C 1011.1 in /  34235.8 hPa WNW 3.2 mph /  5.1 km/h 11.3 mph /  18.2 km/h 93 % 0.5 in /  12.7 mm
18:22 1.7 °F /  -16.8 °C 0.7 °F /  -17.4 °C 1011.1 in /  34235.8 hPa West 1.6 mph /  2.6 km/h 9.7 mph /  15.6 km/h 93 % 0.5 in /  12.7 mm
18:32 1.8 °F /  -16.8 °C 0.6 °F /  -17.4 °C 1011.4 in /  34246 hPa West 6.4 mph /  10.3 km/h 9.7 mph /  15.6 km/h 92 % 0.3 in /  7.62 mm
18:37 1.8 °F /  -16.8 °C 0.6 °F /  -17.4 °C 1011.1 in /  34235.8 hPa West 1.6 mph /  2.6 km/h 9.7 mph /  15.6 km/h 92 % 0.3 in /  7.62 mm
18:42 1.8 °F /  -16.8 °C 0.6 °F /  -17.4 °C 1011.4 in /  34246 hPa WNW 4.8 mph /  7.7 km/h 14.5 mph /  23.3 km/h 92 % 0.3 in /  7.62 mm
18:52 1.8 °F /  -16.8 °C 0.6 °F /  -17.4 °C 1011.4 in /  34246 hPa NW 8.0 mph /  12.9 km/h 9.7 mph /  15.6 km/h 92 % 0.3 in /  7.62 mm
18:57 1.8 °F /  -16.8 °C 0.3 °F /  -17.6 °C 1011.4 in /  34246 hPa NW 16.1 mph /  25.9 km/h 19.3 mph /  31.1 km/h 90 % 0.3 in /  7.62 mm
19:02 1.4 °F /  -17 °C -0.1 °F /  -17.8 °C 1011.7 in /  34256.2 hPa NNW 19.3 mph /  31.1 km/h 19.3 mph /  31.1 km/h 90 % 0.3 in /  7.62 mm
19:22 0.2 °F /  -17.7 °C -0.5 °F /  -18.1 °C 1011.1 in /  34235.8 hPa WNW 1.6 mph /  2.6 km/h 30.6 mph /  49.2 km/h 95 % 0.3 in /  7.62 mm
19:32 0.2 °F /  -17.7 °C -0.5 °F /  -18.1 °C 1011.1 in /  34235.8 hPa Calm   14.5 mph /  23.3 km/h 95 % 0.3 in /  7.62 mm
19:57 0.3 °F /  -17.6 °C -0.3 °F /  -17.9 °C 1010.7 in /  34222.3 hPa SW 3.2 mph /  5.1 km/h 4.8 mph /  7.7 km/h 96 % 0.0 in /  0 mm
20:17 0.4 °F /  -17.6 °C -0.2 °F /  -17.9 °C 1010.7 in /  34222.3 hPa Calm   4.8 mph /  7.7 km/h 96 % 0.0 in /  0 mm
20:22 0.4 °F /  -17.6 °C -0.2 °F /  -17.9 °C 1010.7 in /  34222.3 hPa West 1.6 mph /  2.6 km/h 4.8 mph /  7.7 km/h 96 % 0.0 in /  0 mm
20:27 0.4 °F /  -17.6 °C -0.2 °F /  -17.9 °C 1010.4 in /  34212.1 hPa SW 1.6 mph /  2.6 km/h 4.8 mph /  7.7 km/h 96 % 0.0 in /  0 mm
20:52 0.6 °F /  -17.4 °C 0.0 °F /  -17.8 °C 1010.4 in /  34212.1 hPa Calm   6.4 mph /  10.3 km/h 96 % 0.0 in /  0 mm
21:02 0.3 °F /  -17.6 °C -0.4 °F /  -18 °C 1010.4 in /  34212.1 hPa East 1.6 mph /  2.6 km/h 4.8 mph /  7.7 km/h 95 % 0.0 in /  0 mm
21:12 0.1 °F /  -17.7 °C -0.6 °F /  -18.1 °C 1010.4 in /  34212.1 hPa Calm   1.6 mph /  2.6 km/h 95 % 0.0 in /  0 mm
21:17 0.1 °F /  -17.7 °C -0.5 °F /  -18.1 °C 1010.4 in /  34212.1 hPa Calm   1.6 mph /  2.6 km/h 96 % 0.0 in /  0 mm
21:22 0.1 °F /  -17.7 °C -0.5 °F /  -18.1 °C 1010.4 in /  34212.1 hPa Calm   1.6 mph /  2.6 km/h 96 % 0.0 in /  0 mm
21:27 0.2 °F /  -17.7 °C -0.4 °F /  -18 °C 1010.4 in /  34212.1 hPa NW 3.2 mph /  5.1 km/h 3.2 mph /  5.1 km/h 96 % 0.0 in /  0 mm
21:32 0.2 °F /  -17.7 °C -0.4 °F /  -18 °C 1010.4 in /  34212.1 hPa WNW 8.0 mph /  12.9 km/h 8.0 mph /  12.9 km/h 96 % 0.0 in /  0 mm
21:42 0.1 °F /  -17.7 °C -0.5 °F /  -18.1 °C 1010.4 in /  34212.1 hPa Calm   12.9 mph /  20.8 km/h 96 % 0.0 in /  0 mm
21:47 0.1 °F /  -17.7 °C -0.5 °F /  -18.1 °C 1010.0 in /  34198.6 hPa WNW 1.6 mph /  2.6 km/h 12.9 mph /  20.8 km/h 96 % 0.0 in /  0 mm
22:02 0.1 °F /  -17.7 °C -0.5 °F /  -18.1 °C 1010.0 in /  34198.6 hPa North 1.6 mph /  2.6 km/h 6.4 mph /  10.3 km/h 96 % 0.0 in /  0 mm
22:12 0.0 °F /  -17.8 °C -0.6 °F /  -18.1 °C 1010.4 in /  34212.1 hPa Calm   4.8 mph /  7.7 km/h 96 % 0.0 in /  0 mm
22:17 0.0 °F /  -17.8 °C -0.6 °F /  -18.1 °C 1010.4 in /  34212.1 hPa Calm   3.2 mph /  5.1 km/h 96 % 0.0 in /  0 mm
22:22 -0.1 °F /  -17.8 °C -0.7 °F /  -18.2 °C 1010.7 in /  34222.3 hPa Calm   1.6 mph /  2.6 km/h 96 % 0.0 in /  0 mm
22:27 -0.1 °F /  -17.8 °C -0.7 °F /  -18.2 °C 1010.7 in /  34222.3 hPa Calm   1.6 mph /  2.6 km/h 96 % 0.0 in /  0 mm
22:32 -0.1 °F /  -17.8 °C -0.7 °F /  -18.2 °C 1010.7 in /  34222.3 hPa Calm   1.6 mph /  2.6 km/h 96 % 0.0 in /  0 mm
22:37 -0.1 °F /  -17.8 °C -0.7 °F /  -18.2 °C 1010.7 in /  34222.3 hPa Calm   1.6 mph /  2.6 km/h 96 % 0.0 in /  0 mm
22:42 -0.2 °F /  -17.9 °C -0.8 °F /  -18.2 °C 1010.7 in /  34222.3 hPa Calm   1.6 mph /  2.6 km/h 96 % 0.0 in /  0 mm
22:52 -0.2 °F /  -17.9 °C -0.8 °F /  -18.2 °C 1010.7 in /  34222.3 hPa NW 6.4 mph /  10.3 km/h 8.0 mph /  12.9 km/h 96 % 0.0 in /  0 mm
22:57 -0.1 °F /  -17.8 °C -0.7 °F /  -18.2 °C 1010.7 in /  34222.3 hPa WNW 3.2 mph /  5.1 km/h 14.5 mph /  23.3 km/h 96 % 0.0 in /  0 mm
23:02 -0.1 °F /  -17.8 °C -0.7 °F /  -18.2 °C 1010.7 in /  34222.3 hPa WNW 6.4 mph /  10.3 km/h 14.5 mph /  23.3 km/h 96 % 0.0 in /  0 mm
23:07 -0.1 °F /  -17.8 °C -0.7 °F /  -18.2 °C 1010.7 in /  34222.3 hPa WNW 8.0 mph /  12.9 km/h 14.5 mph /  23.3 km/h 96 % 0.0 in /  0 mm
23:12 -0.1 °F /  -17.8 °C -0.7 °F /  -18.2 °C 1010.7 in /  34222.3 hPa West 4.8 mph /  7.7 km/h 14.5 mph /  23.3 km/h 96 % 0.0 in /  0 mm
23:22 -0.1 °F /  -17.8 °C -0.8 °F /  -18.2 °C 1010.7 in /  34222.3 hPa WSW 3.2 mph /  5.1 km/h 12.9 mph /  20.8 km/h 95 % 0.0 in /  0 mm
23:27 -0.1 °F /  -17.8 °C -0.8 °F /  -18.2 °C 1010.7 in /  34222.3 hPa NW 4.8 mph /  7.7 km/h 9.7 mph /  15.6 km/h 95 % 0.0 in /  0 mm
Meteo18
Compliments of Weather Underground - 4 mb

Script developed by  Jim McMurry - jmcmurry@mwt.net Adapted for the template by  Wim van der Kuil - Leuven-Template.eu

You find our weather info also at:

European Weather Network

Weather Underground

Equipment we use:

Weather-station
Davis Vue

Weather-program
Meteobridge

Weather-server
Raspberry PI 2 B+

Provider
1 and 1

Davis Vue

Meteobridge

Raspberry PI 2 B+

1 and 1